createdAt,value
2022-08-08T00:01:15.684Z,44.38
2022-08-08T00:03:59.615Z,44.55
2022-08-08T00:06:47.538Z,44.76
2022-08-08T00:09:16.979Z,44.87
2022-08-08T00:12:10.760Z,44.85
2022-08-08T00:15:00.571Z,44.99
2022-08-08T00:18:03.947Z,45.37
2022-08-08T00:20:50.478Z,45.24
2022-08-08T00:23:43.531Z,45.42
2022-08-08T00:26:29.362Z,45.72
2022-08-08T00:29:45.153Z,45.76
2022-08-08T00:32:38.430Z,45.92
2022-08-08T00:35:21.023Z,46.24
2022-08-08T00:38:30.909Z,45.76
2022-08-08T00:41:54.580Z,46.10
2022-08-08T00:44:24.898Z,46.58
2022-08-08T00:47:36.919Z,46.06
2022-08-08T00:51:01.912Z,45.91
2022-08-08T00:53:57.281Z,46.61
2022-08-08T00:56:53.925Z,46.27
2022-08-08T00:59:43.861Z,46.73
2022-08-08T01:03:18.236Z,46.76
2022-08-08T01:06:00.930Z,46.60
2022-08-08T01:09:35.768Z,46.82
2022-08-08T01:12:17.671Z,46.43
2022-08-08T01:14:57.374Z,47.11
2022-08-08T01:18:50.784Z,46.87
2022-08-08T01:21:12.036Z,47.17
2022-08-08T01:24:05.998Z,47.14
2022-08-08T01:27:06.938Z,47.54
2022-08-08T01:29:59.828Z,47.38
2022-08-08T01:33:02.285Z,47.41
2022-08-08T01:36:04.629Z,47.57
2022-08-08T01:39:04.442Z,47.63
2022-08-08T01:41:34.063Z,48.23
2022-08-08T01:44:00.906Z,48.62
2022-08-08T01:46:58.333Z,48.30
2022-08-08T01:49:48.442Z,49.02
2022-08-08T01:55:15.069Z,48.69
2022-08-08T01:56:28.109Z,48.30
2022-08-08T01:59:38.181Z,48.24
2022-08-08T02:02:41.467Z,48.55
2022-08-08T02:05:33.561Z,48.53
2022-08-08T02:08:36.644Z,48.59
2022-08-08T02:11:23.183Z,48.95
2022-08-08T02:14:15.138Z,49.66
2022-08-08T02:16:56.983Z,49.46
2022-08-08T02:20:07.534Z,49.91
2022-08-08T02:23:16.365Z,49.49
2022-08-08T02:26:15.817Z,49.50
2022-08-08T02:28:58.178Z,49.79
2022-08-08T02:32:00.847Z,49.63
2022-08-08T02:35:07.518Z,49.76
2022-08-08T02:38:25.101Z,49.90
2022-08-08T02:41:57.887Z,50.64
2022-08-08T02:44:57.264Z,49.95
2022-08-08T02:48:02.988Z,50.16
2022-08-08T02:51:00.730Z,50.21
2022-08-08T02:53:47.338Z,51.13
2022-08-08T02:56:25.910Z,50.89
2022-08-08T02:59:37.129Z,50.61
2022-08-08T03:02:54.345Z,50.62
2022-08-08T03:05:46.789Z,51.42
2022-08-08T03:08:26.902Z,51.10
2022-08-08T03:11:47.572Z,51.34
2022-08-08T03:15:55.979Z,51.94
2022-08-08T03:17:39.787Z,51.86
2022-08-08T03:20:08.266Z,52.14
2022-08-08T03:22:47.083Z,51.99
2022-08-08T03:25:18.393Z,52.23
2022-08-08T03:27:56.320Z,52.21
2022-08-08T03:30:25.072Z,52.62
2022-08-08T03:33:56.085Z,52.44
2022-08-08T03:35:58.258Z,52.59
2022-08-08T03:38:54.600Z,52.41
2022-08-08T03:41:32.154Z,52.78
2022-08-08T03:43:59.714Z,52.45
2022-08-08T03:46:32.306Z,52.74
2022-08-08T03:49:26.596Z,52.49
2022-08-08T03:51:53.399Z,52.59
2022-08-08T03:54:51.939Z,53.18
2022-08-08T03:58:31.085Z,52.71
2022-08-08T04:00:11.145Z,53.36
2022-08-08T04:02:47.785Z,53.18
2022-08-08T04:05:19.560Z,53.04
2022-08-08T04:07:54.013Z,53.13
2022-08-08T04:10:20.708Z,53.28
2022-08-08T04:12:49.805Z,53.40
2022-08-08T04:15:16.520Z,53.59
2022-08-08T04:17:57.871Z,53.47
2022-08-08T04:20:28.647Z,53.59
2022-08-08T04:22:56.748Z,53.61
2022-08-08T04:25:29.820Z,53.28
2022-08-08T04:28:02.157Z,53.73
2022-08-08T04:30:44.831Z,53.56
2022-08-08T04:33:11.585Z,53.76
2022-08-08T04:35:41.810Z,53.37
2022-08-08T04:38:21.395Z,53.19
2022-08-08T04:40:53.338Z,53.39
2022-08-08T04:43:22.118Z,52.96
2022-08-08T04:45:50.204Z,52.98
2022-08-08T04:48:17.500Z,52.71
2022-08-08T04:50:48.705Z,52.99
2022-08-08T04:54:27.603Z,52.93
2022-08-08T04:56:04.151Z,52.84
2022-08-08T04:58:31.113Z,53.04
2022-08-08T05:00:59.764Z,52.71
2022-08-08T05:04:11.443Z,52.48
2022-08-08T05:06:25.927Z,52.24
2022-08-08T05:08:56.128Z,52.13
2022-08-08T05:11:29.010Z,51.79
2022-08-08T05:14:05.120Z,51.57
2022-08-08T05:16:53.072Z,51.36
2022-08-08T05:20:04.189Z,51.21
2022-08-08T05:22:08.114Z,51.37
2022-08-08T05:24:37.232Z,51.39
2022-08-08T05:27:04.714Z,51.35
2022-08-08T05:29:31.817Z,51.24
2022-08-08T05:32:06.202Z,51.08
2022-08-08T05:34:36.426Z,50.88
2022-08-08T05:37:07.487Z,50.65
2022-08-08T05:39:51.221Z,50.62
2022-08-08T05:42:25.566Z,50.50
2022-08-08T05:44:53.920Z,50.35
2022-08-08T05:47:23.946Z,50.25
2022-08-08T05:49:58.571Z,50.19
2022-08-08T05:52:33.935Z,49.86
2022-08-08T05:55:09.796Z,49.68
2022-08-08T05:58:05.625Z,49.56
2022-08-08T06:00:34.371Z,49.76
2022-08-08T06:03:24.601Z,48.95
2022-08-08T06:06:01.304Z,49.18
2022-08-08T06:08:54.764Z,49.09
2022-08-08T06:11:22.478Z,49.08
2022-08-08T06:13:54.989Z,48.77
2022-08-08T06:16:27.751Z,49.07
2022-08-08T06:19:00.246Z,48.64
2022-08-08T06:21:48.412Z,48.50
2022-08-08T06:24:22.992Z,48.07
2022-08-08T06:27:04.315Z,47.42
2022-08-08T06:29:59.170Z,47.43
2022-08-08T06:32:32.056Z,47.31
2022-08-08T06:36:03.855Z,46.94
2022-08-08T06:37:57.630Z,46.90
2022-08-08T06:40:27.000Z,46.92
2022-08-08T06:43:09.528Z,46.37
2022-08-08T06:45:40.292Z,46.61
2022-08-08T06:48:07.219Z,46.39
2022-08-08T06:50:41.795Z,45.80
2022-08-08T06:53:16.993Z,45.89
2022-08-08T06:55:46.886Z,45.77
2022-08-08T06:58:14.399Z,45.43
2022-08-08T07:00:46.116Z,45.25
2022-08-08T07:03:52.183Z,45.33
2022-08-08T07:06:22.316Z,44.88
2022-08-08T07:08:57.072Z,45.08
2022-08-08T07:11:51.310Z,44.88
2022-08-08T07:14:26.275Z,44.71
2022-08-08T07:17:09.060Z,44.46
2022-08-08T07:19:45.079Z,44.49
2022-08-08T07:22:22.187Z,44.63
2022-08-08T07:25:04.144Z,44.26
2022-08-08T07:28:00.793Z,44.83
2022-08-08T07:30:30.694Z,44.06
2022-08-08T07:32:59.536Z,44.26
2022-08-08T07:35:28.631Z,44.56
2022-08-08T07:38:09.865Z,44.26
2022-08-08T07:40:38.351Z,44.08
2022-08-08T07:43:09.358Z,43.94
2022-08-08T07:46:05.565Z,43.84
2022-08-08T07:48:24.203Z,43.92
2022-08-08T07:50:53.894Z,43.34
2022-08-08T07:54:02.308Z,43.51
2022-08-08T07:56:36.132Z,43.30
2022-08-08T07:59:08.941Z,42.97
2022-08-08T08:02:35.578Z,42.62
2022-08-08T08:04:32.574Z,42.42
2022-08-08T08:07:02.611Z,42.71
2022-08-08T08:09:36.916Z,42.75
2022-08-08T08:12:07.290Z,42.86
2022-08-08T08:14:41.871Z,42.97
2022-08-08T08:17:12.183Z,42.98
2022-08-08T08:19:45.754Z,42.96
2022-08-08T08:22:12.593Z,42.94
2022-08-08T08:24:42.969Z,42.70
2022-08-08T08:27:12.665Z,42.40
2022-08-08T08:29:39.701Z,42.15
2022-08-08T08:32:09.235Z,41.91
2022-08-08T08:34:48.458Z,42.17
2022-08-08T08:37:20.421Z,42.04
2022-08-08T08:40:00.119Z,42.28
2022-08-08T08:42:35.511Z,41.53
2022-08-08T08:45:10.346Z,41.32
2022-08-08T08:47:52.955Z,41.33
2022-08-08T08:50:35.058Z,41.59
2022-08-08T08:53:28.077Z,40.99
2022-08-08T08:56:01.943Z,40.94
2022-08-08T08:58:39.884Z,40.69
2022-08-08T09:01:13.600Z,41.09
2022-08-08T09:03:51.611Z,41.04
2022-08-08T09:06:28.495Z,40.99
2022-08-08T09:09:26.189Z,40.88
2022-08-08T09:12:02.355Z,40.58
2022-08-08T09:14:34.356Z,40.49
2022-08-08T09:17:07.064Z,39.99
2022-08-08T09:21:58.399Z,39.95
2022-08-08T09:22:27.196Z,39.72
2022-08-08T09:24:55.884Z,39.96
2022-08-08T09:27:55.847Z,39.83
2022-08-08T09:30:14.714Z,39.70
2022-08-08T09:32:50.274Z,39.52
2022-08-08T09:35:32.061Z,39.54
2022-08-08T09:38:05.838Z,39.01
2022-08-08T09:40:46.577Z,39.23
2022-08-08T09:44:03.035Z,38.99
2022-08-08T09:46:25.472Z,38.92
2022-08-08T09:49:18.520Z,38.29
2022-08-08T09:52:06.428Z,38.26
2022-08-08T09:54:59.436Z,38.40
2022-08-08T09:57:35.111Z,37.66
2022-08-08T10:00:37.413Z,37.66
2022-08-08T10:03:03.944Z,37.56
2022-08-08T10:05:35.122Z,37.83
2022-08-08T10:08:02.397Z,37.57
2022-08-08T10:10:38.167Z,37.84
2022-08-08T10:13:25.990Z,37.92
2022-08-08T10:16:02.033Z,37.29
2022-08-08T10:18:33.540Z,37.18
2022-08-08T10:21:08.254Z,37.52
2022-08-08T10:23:58.014Z,37.37
2022-08-08T10:26:52.416Z,36.98
2022-08-08T10:29:56.950Z,37.31
2022-08-08T10:32:38.223Z,36.28
2022-08-08T10:36:06.369Z,35.93
2022-08-08T10:38:05.139Z,35.61
2022-08-08T10:40:33.181Z,36.08
2022-08-08T10:43:04.582Z,35.60
2022-08-08T10:45:42.435Z,35.67
2022-08-08T10:48:57.737Z,35.64
2022-08-08T10:51:31.123Z,35.60
2022-08-08T10:54:07.234Z,36.01
2022-08-08T10:56:35.609Z,35.60
2022-08-08T10:59:12.183Z,35.71
2022-08-08T11:01:49.367Z,35.72
2022-08-08T11:04:38.662Z,35.43
2022-08-08T11:07:06.791Z,35.30
2022-08-08T11:09:34.460Z,34.86
2022-08-08T11:12:13.192Z,34.33
2022-08-08T11:14:57.099Z,34.42
2022-08-08T11:17:59.718Z,33.92
2022-08-08T11:22:41.670Z,33.45
2022-08-08T11:25:14.419Z,33.57
2022-08-08T11:27:44.635Z,33.56
2022-08-08T11:30:20.183Z,33.72
2022-08-08T11:32:48.382Z,34.08
2022-08-08T11:35:27.572Z,34.31
2022-08-08T11:38:38.625Z,34.28
2022-08-08T11:40:52.445Z,33.63
2022-08-08T11:43:21.764Z,33.87
2022-08-08T11:46:13.355Z,33.66
2022-08-08T11:48:39.282Z,33.54
2022-08-08T11:51:38.185Z,32.59
2022-08-08T11:53:55.273Z,32.56
2022-08-08T11:56:35.402Z,31.77
2022-08-08T11:59:10.289Z,30.62
2022-08-08T12:01:37.493Z,30.91
2022-08-08T12:04:05.746Z,30.75
2022-08-08T12:06:33.537Z,30.70
2022-08-08T12:09:08.264Z,31.09
2022-08-08T12:11:41.222Z,30.74
2022-08-08T12:14:10.904Z,30.99
2022-08-08T12:16:49.033Z,31.01
2022-08-08T12:19:15.827Z,30.76
2022-08-08T12:21:59.801Z,30.87
2022-08-08T12:24:29.771Z,30.38
2022-08-08T12:26:56.950Z,30.24
2022-08-08T12:29:42.174Z,30.80
2022-08-08T12:32:20.389Z,30.60
2022-08-08T12:35:13.262Z,31.06
2022-08-08T12:38:01.596Z,30.58
2022-08-08T12:40:56.500Z,30.84
2022-08-08T12:43:32.087Z,30.46
2022-08-08T12:46:02.923Z,30.05
2022-08-08T12:48:37.574Z,29.84
2022-08-08T12:51:07.618Z,29.98
2022-08-08T12:53:54.423Z,30.21
2022-08-08T12:56:39.106Z,30.00
2022-08-08T12:59:36.205Z,29.95
2022-08-08T13:02:09.389Z,29.59
2022-08-08T13:04:36.049Z,29.33
2022-08-08T13:07:06.848Z,29.28
2022-08-08T13:10:04.100Z,29.91
2022-08-08T13:12:36.002Z,29.64
2022-08-08T13:15:09.656Z,29.22
2022-08-08T13:18:07.824Z,29.25
2022-08-08T13:20:27.110Z,29.11
2022-08-08T13:23:30.071Z,28.78
2022-08-08T13:25:43.454Z,28.83
2022-08-08T13:28:09.888Z,29.01
2022-08-08T13:30:36.368Z,28.85
2022-08-08T13:33:04.181Z,28.76
2022-08-08T13:35:41.134Z,28.95
2022-08-08T13:38:13.108Z,29.12
2022-08-08T13:40:44.826Z,29.16
2022-08-08T13:43:12.392Z,29.01
2022-08-08T13:45:39.067Z,29.26
2022-08-08T13:48:14.621Z,29.97
2022-08-08T13:50:55.081Z,29.40
2022-08-08T13:53:34.007Z,29.19
2022-08-08T13:56:11.333Z,28.77
2022-08-08T13:58:48.784Z,29.93
2022-08-08T14:01:32.778Z,29.32
2022-08-08T14:04:21.186Z,29.67
2022-08-08T14:06:48.677Z,28.99
2022-08-08T14:09:29.162Z,29.29
2022-08-08T14:12:00.517Z,29.47
2022-08-08T14:14:36.551Z,29.84
2022-08-08T14:17:07.649Z,29.10
2022-08-08T14:19:57.149Z,29.64
2022-08-08T14:22:37.251Z,29.21
2022-08-08T14:25:07.741Z,29.17
2022-08-08T14:27:40.336Z,29.17
2022-08-08T14:30:18.393Z,29.47
2022-08-08T14:32:46.815Z,29.29
2022-08-08T14:35:35.005Z,29.50
2022-08-08T14:38:09.555Z,29.71
2022-08-08T14:40:53.612Z,29.89
2022-08-08T14:44:01.987Z,29.47
2022-08-08T14:46:16.572Z,29.49
2022-08-08T14:48:57.057Z,29.56
2022-08-08T14:51:47.245Z,29.75
2022-08-08T14:54:14.131Z,29.56
2022-08-08T14:56:48.171Z,29.91
2022-08-08T14:59:22.593Z,29.94
2022-08-08T15:02:05.175Z,30.43
2022-08-08T15:04:35.111Z,30.03
2022-08-08T15:07:02.773Z,30.20
2022-08-08T15:09:30.986Z,30.15
2022-08-08T15:11:58.899Z,30.33
2022-08-08T15:14:26.797Z,29.97
2022-08-08T15:16:53.977Z,29.97
2022-08-08T15:19:21.196Z,29.91
2022-08-08T15:21:50.420Z,29.70
2022-08-08T15:24:17.052Z,30.00
2022-08-08T15:26:46.618Z,29.53
2022-08-08T15:29:19.182Z,29.04
2022-08-08T15:32:03.468Z,29.06
2022-08-08T15:34:36.505Z,29.73
2022-08-08T15:37:05.762Z,29.37
2022-08-08T15:39:37.614Z,29.26
2022-08-08T15:42:10.647Z,29.11
2022-08-08T15:44:42.058Z,29.13
2022-08-08T15:47:15.604Z,29.24
2022-08-08T15:49:47.872Z,28.99
2022-08-08T15:52:15.982Z,28.96
2022-08-08T15:54:46.193Z,28.98
2022-08-08T15:57:15.669Z,28.54
2022-08-08T16:00:06.907Z,28.83
2022-08-08T16:02:31.239Z,28.70
2022-08-08T16:04:59.974Z,28.64
2022-08-08T16:07:39.117Z,28.70
2022-08-08T16:13:03.013Z,28.41
2022-08-08T16:13:30.351Z,28.21
2022-08-08T16:15:59.215Z,28.11
2022-08-08T16:18:27.599Z,27.95
2022-08-08T16:21:00.508Z,28.04
2022-08-08T16:23:31.742Z,28.31
2022-08-08T16:26:03.863Z,28.88
2022-08-08T16:28:35.573Z,28.87
2022-08-08T16:31:04.653Z,28.93
2022-08-08T16:33:38.616Z,28.77
2022-08-08T16:36:08.934Z,29.13
2022-08-08T16:38:44.661Z,28.97
2022-08-08T16:41:20.679Z,29.02
2022-08-08T16:43:51.556Z,29.04
2022-08-08T16:46:38.872Z,28.70
2022-08-08T16:49:07.891Z,28.47
2022-08-08T16:55:03.606Z,28.28
2022-08-08T16:55:05.136Z,28.66
2022-08-08T16:57:40.713Z,28.57
2022-08-08T17:00:01.545Z,28.92
2022-08-08T17:02:39.434Z,29.17
2022-08-08T17:05:13.703Z,29.17
2022-08-08T17:07:40.933Z,29.46
2022-08-08T17:10:09.597Z,28.63
2022-08-08T17:12:36.458Z,28.51
2022-08-08T17:15:17.389Z,28.48
2022-08-08T17:18:02.488Z,28.35
2022-08-08T17:20:39.682Z,28.17
2022-08-08T17:23:25.869Z,28.82
2022-08-08T17:26:05.123Z,28.37
2022-08-08T17:28:35.572Z,28.14
2022-08-08T17:31:39.507Z,28.12
2022-08-08T17:34:53.490Z,28.25
2022-08-08T17:36:37.864Z,28.22
2022-08-08T17:39:46.157Z,28.06
2022-08-08T17:42:08.774Z,27.72
2022-08-08T17:44:37.412Z,27.37
2022-08-08T17:47:06.374Z,27.42
2022-08-08T17:49:42.478Z,27.60
2022-08-08T17:52:10.083Z,27.39
2022-08-08T17:54:36.643Z,27.61
2022-08-08T17:57:03.246Z,27.55
2022-08-08T17:59:36.059Z,28.23
2022-08-08T18:02:18.745Z,28.09
2022-08-08T18:04:51.056Z,28.19
2022-08-08T18:08:02.735Z,27.98
2022-08-08T18:10:05.032Z,28.33
2022-08-08T18:12:31.504Z,28.55
2022-08-08T18:14:57.987Z,28.93
2022-08-08T18:17:28.517Z,28.54
2022-08-08T18:20:44.234Z,28.73
2022-08-08T18:22:51.094Z,28.80
2022-08-08T18:25:17.922Z,29.26
2022-08-08T18:27:45.677Z,28.70
2022-08-08T18:30:13.423Z,28.87
2022-08-08T18:32:41.901Z,28.84
2022-08-08T18:35:15.514Z,29.20
2022-08-08T18:37:48.392Z,29.50
2022-08-08T18:40:15.389Z,29.53
2022-08-08T18:42:45.790Z,29.91
2022-08-08T18:45:45.014Z,30.36
2022-08-08T18:48:07.716Z,30.67
2022-08-08T18:50:39.495Z,31.26
2022-08-08T18:53:06.451Z,31.50
2022-08-08T18:55:33.874Z,32.06
2022-08-08T18:58:00.517Z,32.35
2022-08-08T19:00:27.038Z,33.06
2022-08-08T19:02:57.959Z,33.29
2022-08-08T19:05:44.060Z,33.75
2022-08-08T19:08:24.708Z,33.82
2022-08-08T19:10:59.697Z,34.85
2022-08-08T19:13:38.422Z,34.77
2022-08-08T19:16:19.308Z,35.56
2022-08-08T19:18:49.694Z,35.60
2022-08-08T19:21:23.069Z,35.74
2022-08-08T19:23:57.972Z,36.49
2022-08-08T19:26:30.804Z,36.92
2022-08-08T19:28:59.361Z,37.08
2022-08-08T19:31:31.761Z,37.37
2022-08-08T19:34:15.331Z,37.53
2022-08-08T19:36:51.904Z,37.74
2022-08-08T19:39:19.373Z,38.10
2022-08-08T19:41:46.127Z,38.62
2022-08-08T19:44:26.785Z,38.41
2022-08-08T19:47:01.681Z,38.10
2022-08-08T19:49:36.620Z,39.01
2022-08-08T19:52:05.771Z,39.04
2022-08-08T19:54:32.294Z,39.43
2022-08-08T19:56:58.826Z,39.58
2022-08-08T19:59:30.924Z,39.90
2022-08-08T20:02:04.678Z,40.06
2022-08-08T20:04:33.229Z,40.22
2022-08-08T20:08:30.195Z,40.34
2022-08-08T20:09:55.711Z,40.25
2022-08-08T20:12:34.918Z,40.24
2022-08-08T20:15:14.530Z,40.30
2022-08-08T20:17:45.035Z,40.50
2022-08-08T20:20:18.998Z,40.63
2022-08-08T20:22:46.018Z,40.56
2022-08-08T20:25:20.421Z,40.79
2022-08-08T20:27:49.409Z,41.05
2022-08-08T20:30:52.715Z,40.99
2022-08-08T20:33:18.470Z,41.36
2022-08-08T20:35:58.707Z,41.45
2022-08-08T20:38:32.807Z,41.50
2022-08-08T20:41:12.207Z,41.65
2022-08-08T20:43:48.100Z,41.75
2022-08-08T20:46:16.542Z,42.07
2022-08-08T20:48:43.839Z,41.35
2022-08-08T20:51:10.689Z,41.97
2022-08-08T20:53:59.861Z,42.59
2022-08-08T20:56:35.540Z,42.49
2022-08-08T20:59:06.258Z,42.32
2022-08-08T21:01:44.399Z,42.46
2022-08-08T21:04:23.306Z,42.66
2022-08-08T21:06:53.033Z,42.81
2022-08-08T21:09:21.501Z,42.82
2022-08-08T21:11:52.097Z,42.91
2022-08-08T21:14:33.799Z,42.68
2022-08-08T21:17:06.107Z,42.58
2022-08-08T21:19:44.267Z,42.80
2022-08-08T21:22:13.795Z,43.07
2022-08-08T21:24:42.119Z,43.08
2022-08-08T21:28:05.081Z,43.29
2022-08-08T21:30:10.912Z,43.30
2022-08-08T21:32:44.227Z,43.34
2022-08-08T21:36:14.645Z,43.46
2022-08-08T21:38:03.987Z,43.49
2022-08-08T21:40:32.256Z,43.53
2022-08-08T21:42:59.273Z,43.96
2022-08-08T21:48:00.312Z,44.05
2022-08-08T21:48:16.329Z,42.66
2022-08-08T21:50:49.537Z,43.98
2022-08-08T21:54:34.462Z,44.19
2022-08-08T21:56:26.046Z,44.56
2022-08-08T21:58:54.989Z,44.66
2022-08-08T22:01:27.869Z,45.18
2022-08-08T22:04:06.497Z,45.11
2022-08-08T22:06:33.328Z,45.24
2022-08-08T22:09:08.362Z,45.58
2022-08-08T22:11:59.565Z,45.76
2022-08-08T22:14:23.662Z,45.83
2022-08-08T22:16:51.157Z,46.20
2022-08-08T22:19:23.942Z,46.37
2022-08-08T22:21:51.535Z,46.55
2022-08-08T22:24:18.045Z,46.80
2022-08-08T22:27:02.037Z,46.94
2022-08-08T22:30:01.540Z,47.29
2022-08-08T22:32:18.014Z,47.55
2022-08-08T22:34:50.842Z,47.52
2022-08-08T22:37:48.924Z,48.07
2022-08-08T22:40:16.577Z,48.18
2022-08-08T22:42:47.425Z,48.69
2022-08-08T22:45:15.117Z,48.92
2022-08-08T22:47:47.428Z,49.15
2022-08-08T22:50:26.392Z,49.52
2022-08-08T22:54:28.117Z,49.29
2022-08-08T22:55:58.820Z,49.66
2022-08-08T22:58:33.159Z,50.74
2022-08-08T23:02:01.314Z,49.89
2022-08-08T23:03:55.996Z,50.86
2022-08-08T23:06:26.763Z,51.11
2022-08-08T23:09:00.049Z,50.96
2022-08-08T23:12:11.540Z,51.16
2022-08-08T23:14:20.741Z,51.46
2022-08-08T23:16:54.723Z,51.85
2022-08-08T23:19:27.404Z,51.74
2022-08-08T23:21:57.646Z,51.90
2022-08-08T23:24:24.262Z,52.18
2022-08-08T23:26:55.660Z,52.47
2022-08-08T23:29:23.742Z,52.60
2022-08-08T23:31:50.152Z,52.14
2022-08-08T23:34:19.695Z,52.83
2022-08-08T23:36:47.635Z,53.16
2022-08-08T23:39:15.523Z,53.46
2022-08-08T23:41:46.991Z,53.26
2022-08-08T23:44:16.907Z,53.35
2022-08-08T23:49:06.163Z,53.70
2022-08-08T23:49:32.944Z,53.57
2022-08-08T23:52:05.796Z,54.10
2022-08-08T23:54:41.759Z,53.58
2022-08-08T23:57:26.828Z,53.97
